Time;durP1;ratioP1;P1;durP2;ratioP2;P2;SDS_P1;SDS_P2;PMS_P1;PMS_P2;Temp;Humidity;BMP_temperature;BMP_pressure;BME280_temperature;BME280_humidity;BME280_pressure;Samples;Min_cycle;Max_cycle;Signal;HPM_P1;HPM_P2
2023/08/09 00:00:50;;;;;;;9.00;3.67;;;460.90;2380.80;;;;;;5072456;28;20128;-73
2023/08/09 00:03:15;;;;;;;13.20;4.13;;;436.10;2355.20;;;;;;5071237;28;20466;-72
2023/08/09 00:05:41;;;;;;;7.22;3.38;;;436.10;2355.20;;;;;;5072358;28;20047;-72
2023/08/09 00:08:07;;;;;;;7.28;3.90;;;436.10;2355.20;;;;;;5072037;28;20020;-72
2023/08/09 00:10:35;;;;;;;4.57;3.42;;;436.10;2355.20;;;;;;5072324;28;20382;-73
2023/08/09 00:13:02;;;;;;;9.18;4.03;;;435.90;2355.20;;;;;;5071349;28;20056;-72
2023/08/09 00:15:28;;;;;;;7.65;3.67;;;435.80;2355.20;;;;;;5071983;28;20044;-72
2023/08/09 00:17:54;;;;;;;5.32;3.90;;;435.50;2355.20;;;;;;5072138;28;20938;-71
2023/08/09 00:20:20;;;;;;;7.32;4.40;;;435.60;2355.20;;;;;;5072056;28;20025;-72
2023/08/09 00:22:47;;;;;;;6.70;4.05;;;435.50;2355.20;;;;;;5069657;28;20029;-71
2023/08/09 00:25:13;;;;;;;6.88;4.53;;;435.30;2355.20;;;;;;5071901;28;20029;-71
2023/08/09 00:27:39;;;;;;;7.10;4.45;;;435.40;2355.20;;;;;;5072234;28;20035;-72
2023/08/09 00:30:06;;;;;;;8.00;4.60;;;435.40;2355.20;;;;;;5071470;28;20112;-73
2023/08/09 00:32:32;;;;;;;9.63;4.68;;;435.50;2355.20;;;;;;5069235;28;20139;-71
2023/08/09 00:34:57;;;;;;;8.77;4.45;;;435.40;2355.20;;;;;;5072105;28;20107;-72
2023/08/09 00:37:24;;;;;;;11.27;5.22;;;435.30;2355.20;;;;;;5072047;28;20032;-71
2023/08/09 00:39:50;;;;;;;8.30;5.45;;;435.40;2355.20;;;;;;5072094;28;20498;-72
2023/08/09 00:42:16;;;;;;;7.25;5.30;;;435.50;2355.20;;;;;;5072410;28;20052;-72
2023/08/09 00:44:42;;;;;;;12.13;5.95;;;435.50;2355.20;;;;;;5071846;28;20059;-72
2023/08/09 00:47:10;;;;;;;9.40;5.75;;;435.70;2355.20;;;;;;5071552;28;20028;-71
2023/08/09 00:49:39;;;;;;;9.13;5.50;;;435.80;2355.20;;;;;;5072452;28;20036;-71
2023/08/09 00:52:05;;;;;;;16.40;5.93;;;435.90;2355.20;;;;;;5072332;28;20162;-72
2023/08/09 00:54:31;;;;;;;7.47;5.07;;;436.00;2355.20;;;;;;5071776;28;20527;-72
2023/08/09 00:56:57;;;;;;;9.98;5.47;;;436.10;2355.20;;;;;;5063528;28;20033;-71
2023/08/09 00:59:23;;;;;;;12.77;5.80;;;436.10;2355.20;;;;;;5068153;28;20025;-72
2023/08/09 01:01:49;;;;;;;11.43;5.70;;;436.10;2355.20;;;;;;5072297;28;20094;-72
2023/08/09 01:04:16;;;;;;;9.18;5.53;;;436.10;2355.20;;;;;;5072245;28;20363;-72
2023/08/09 01:06:55;;;;;;;9.52;4.78;;;460.90;2380.80;;;;;;5072382;28;20517;-71
2023/08/09 01:09:23;;;;;;;9.95;5.88;;;460.90;2380.80;;;;;;5072657;28;20048;-72
2023/08/09 01:11:57;;;;;;;6.85;5.25;;;460.90;2380.80;;;;;;5072347;28;20013;-76
2023/08/09 01:14:27;;;;;;;7.85;4.80;;;460.90;2380.80;;;;;;5071986;28;20040;-72
2023/08/09 01:16:53;;;;;;;9.50;5.65;;;436.10;2355.20;;;;;;5074879;28;20053;-71
2023/08/09 01:19:36;;;;;;;6.75;4.35;;;436.00;2355.20;;;;;;5075558;28;20143;-75
2023/08/09 01:22:17;;;;;;;6.90;5.15;;;436.00;2355.20;;;;;;5057667;28;20040;-72
2023/08/09 01:24:43;;;;;;;9.88;4.78;;;436.10;2355.20;;;;;;5075814;28;20111;-71
2023/08/09 01:27:09;;;;;;;6.53;4.45;;;460.80;2380.80;;;;;;5075494;28;20051;-72
2023/08/09 01:29:37;;;;;;;11.63;4.97;;;460.90;2380.80;;;;;;5075642;28;20447;-72
2023/08/09 01:32:03;;;;;;;13.93;4.55;;;461.00;2380.80;;;;;;5075475;28;20024;-70
2023/08/09 01:34:28;;;;;;;9.20;5.75;;;461.00;2380.80;;;;;;5075621;28;20020;-72
2023/08/09 01:36:58;;;;;;;6.93;4.53;;;461.00;2380.80;;;;;;5075619;28;20386;-71
2023/08/09 01:39:29;;;;;;;9.63;5.00;;;461.00;2380.80;;;;;;5075538;28;20017;-71
2023/08/09 01:41:56;;;;;;;9.07;4.63;;;461.10;2380.80;;;;;;5075336;28;20491;-72
2023/08/09 01:44:23;;;;;;;7.85;4.95;;;461.10;2380.80;;;;;;5075284;28;20040;-74
2023/08/09 01:46:49;;;;;;;9.50;6.10;;;461.20;2380.80;;;;;;5075269;28;20031;-72
2023/08/09 01:49:22;;;;;;;10.10;4.82;;;461.20;2380.80;;;;;;5074988;28;20505;-72
2023/08/09 01:51:48;;;;;;;9.05;5.13;;;461.20;2380.80;;;;;;5075151;28;20409;-74
2023/08/09 01:54:14;;;;;;;10.70;4.80;;;461.40;2380.80;;;;;;5075007;28;20017;-72
2023/08/09 01:56:41;;;;;;;8.60;5.15;;;461.20;2380.80;;;;;;5056992;28;20548;-70
2023/08/09 01:59:08;;;;;;;8.63;5.07;;;461.10;2380.80;;;;;;5075152;28;20029;-71
2023/08/09 02:01:36;;;;;;;6.13;4.43;;;461.10;2380.80;;;;;;5074860;28;20029;-72
2023/08/09 02:04:03;;;;;;;7.47;4.60;;;461.20;2380.80;;;;;;5075131;28;20456;-71
2023/08/09 02:06:32;;;;;;;8.15;4.82;;;461.20;2380.80;;;;;;5074897;28;20479;-71
2023/08/09 02:08:59;;;;;;;9.40;5.20;;;461.20;2380.80;;;;;;5074854;28;20024;-72
2023/08/09 02:11:25;;;;;;;13.20;5.28;;;461.20;2380.80;;;;;;5074743;28;20526;-76
2023/08/09 02:13:51;;;;;;;9.05;5.03;;;461.20;2380.80;;;;;;5074978;28;20099;-74
2023/08/09 02:16:18;;;;;;;7.32;5.03;;;461.20;2380.80;;;;;;5074659;28;20020;-73
2023/08/09 02:18:44;;;;;;;6.78;4.53;;;461.10;2380.80;;;;;;5074580;28;20562;-72
2023/08/09 02:21:10;;;;;;;6.82;4.88;;;461.10;2380.80;;;;;;5074484;28;20127;-71
2023/08/09 02:23:37;;;;;;;7.53;4.43;;;461.10;2380.80;;;;;;5074568;28;20078;-73
2023/08/09 02:26:05;;;;;;;10.95;5.15;;;461.10;2380.80;;;;;;5074287;28;20028;-73
2023/08/09 02:28:30;;;;;;;8.13;4.60;;;460.90;2380.80;;;;;;5074460;28;20104;-75
2023/08/09 02:30:56;;;;;;;9.93;4.93;;;460.90;2380.80;;;;;;5074315;28;20128;-73
2023/08/09 02:33:22;;;;;;;10.32;5.22;;;460.90;2380.80;;;;;;5056695;28;20025;-74
2023/08/09 02:35:53;;;;;;;8.27;4.68;;;461.00;2380.80;;;;;;5074569;28;20509;-75
2023/08/09 02:38:18;;;;;;;7.50;4.82;;;461.10;2380.80;;;;;;5074336;28;20397;-70
2023/08/09 02:40:44;;;;;;;10.32;5.05;;;460.90;2380.80;;;;;;5074117;28;20028;-71
2023/08/09 02:43:10;;;;;;;11.38;4.97;;;436.10;2355.20;;;;;;5074361;28;20024;-72
2023/08/09 02:45:35;;;;;;;9.43;4.82;;;435.80;2355.20;;;;;;5073943;28;20486;-71
2023/08/09 02:48:01;;;;;;;11.55;5.80;;;435.50;2355.20;;;;;;5073953;28;20501;-70
2023/08/09 02:50:27;;;;;;;11.70;4.50;;;435.30;2355.20;;;;;;5073985;28;20036;-72
2023/08/09 02:52:52;;;;;;;10.27;5.00;;;435.30;2355.20;;;;;;5074141;28;20021;-72
2023/08/09 02:55:18;;;;;;;7.50;4.38;;;435.30;2355.20;;;;;;5073813;28;20021;-74
2023/08/09 02:57:44;;;;;;;8.38;4.63;;;435.30;2355.20;;;;;;5074138;28;20470;-70
2023/08/09 03:00:10;;;;;;;12.60;5.15;;;410.50;2355.20;;;;;;5073833;28;20462;-71
2023/08/09 03:02:36;;;;;;;8.88;5.03;;;410.20;2355.20;;;;;;5073697;28;20056;-75
2023/08/09 03:05:03;;;;;;;13.43;4.90;;;410.40;2355.20;;;;;;5073565;28;20031;-72
2023/08/09 03:07:29;;;;;;;10.65;4.55;;;410.50;2355.20;;;;;;5073867;28;20482;-74
2023/08/09 03:09:55;;;;;;;10.88;5.40;;;410.40;2355.20;;;;;;5073551;28;20021;-74
2023/08/09 03:12:21;;;;;;;23.52;5.50;;;410.50;2355.20;;;;;;5073656;28;20025;-71
2023/08/09 03:14:46;;;;;;;9.32;5.03;;;410.40;2355.20;;;;;;5073459;28;20028;-72
2023/08/09 03:17:12;;;;;;;8.40;4.53;;;435.20;2355.20;;;;;;5073452;28;20073;-71
2023/08/09 03:19:39;;;;;;;9.13;4.85;;;435.30;2355.20;;;;;;5073506;28;20359;-70
2023/08/09 03:22:04;;;;;;;13.20;5.20;;;435.30;2355.20;;;;;;5073552;28;20059;-70
2023/08/09 03:24:30;;;;;;;10.13;5.05;;;435.30;2355.20;;;;;;5073360;28;20474;-71
2023/08/09 03:26:56;;;;;;;11.68;5.65;;;435.20;2355.20;;;;;;5073444;28;20052;-71
2023/08/09 03:29:21;;;;;;;8.65;5.10;;;435.20;2355.20;;;;;;5073337;28;20095;-74
2023/08/09 03:31:47;;;;;;;9.65;4.70;;;410.50;2355.20;;;;;;5073452;28;20020;-71
2023/08/09 03:34:13;;;;;;;10.02;4.63;;;410.50;2355.20;;;;;;5073263;28;20020;-70
2023/08/09 03:36:39;;;;;;;9.48;5.65;;;410.50;2355.20;;;;;;5073253;28;20474;-71
2023/08/09 03:39:06;;;;;;;9.30;4.47;;;410.30;2355.20;;;;;;5072311;28;20028;-72
2023/08/09 03:41:31;;;;;;;15.35;5.20;;;410.30;2355.20;;;;;;5073110;28;20090;-71
2023/08/09 03:43:57;;;;;;;10.48;4.93;;;410.50;2355.20;;;;;;5073410;28;20020;-70
2023/08/09 03:46:23;;;;;;;14.98;4.70;;;435.20;2355.20;;;;;;5073091;28;20025;-70
2023/08/09 03:48:49;;;;;;;11.48;5.07;;;435.30;2355.20;;;;;;5072874;28;20439;-71
2023/08/09 03:51:14;;;;;;;10.13;4.60;;;410.50;2355.20;;;;;;5073577;28;20036;-70
2023/08/09 03:53:40;;;;;;;10.25;4.80;;;410.50;2355.20;;;;;;5072857;28;20099;-73
2023/08/09 03:56:06;;;;;;;8.13;4.55;;;410.50;2355.20;;;;;;5072902;28;20355;-71
2023/08/09 03:58:32;;;;;;;7.18;5.68;;;410.50;2355.20;;;;;;5072906;28;20067;-71
2023/08/09 04:00:57;;;;;;;7.93;4.80;;;410.50;2355.20;;;;;;5072915;28;20382;-71
2023/08/09 04:03:23;;;;;;;11.48;6.15;;;410.30;2355.20;;;;;;5072797;28;20027;-71
2023/08/09 04:05:49;;;;;;;12.45;4.88;;;410.10;2355.20;;;;;;5073025;28;20027;-72
2023/08/09 04:08:15;;;;;;;11.82;5.75;;;410.20;2355.20;;;;;;5072885;28;20024;-71
2023/08/09 04:10:40;;;;;;;7.38;5.20;;;410.10;2355.20;;;;;;5072938;28;20020;-70
2023/08/09 04:13:06;;;;;;;9.45;5.50;;;410.20;2355.20;;;;;;5072763;28;20036;-71
2023/08/09 04:15:31;;;;;;;8.20;5.10;;;410.20;2355.20;;;;;;5054776;28;20035;-73
2023/08/09 04:17:58;;;;;;;16.13;5.55;;;410.30;2355.20;;;;;;5072539;28;20116;-70
2023/08/09 04:20:24;;;;;;;12.00;5.28;;;410.20;2355.20;;;;;;5072778;28;20043;-74
2023/08/09 04:22:50;;;;;;;9.60;4.93;;;410.30;2355.20;;;;;;5072700;28;20449;-71
2023/08/09 04:25:15;;;;;;;8.60;4.63;;;410.30;2355.20;;;;;;5072534;28;20078;-71
2023/08/09 04:27:41;;;;;;;10.98;5.63;;;410.30;2355.20;;;;;;5072543;28;20222;-71
2023/08/09 04:30:12;;;;;;;15.88;5.10;;;410.50;2355.20;;;;;;5072794;28;20378;-71
2023/08/09 04:32:41;;;;;;;6.43;4.32;;;435.30;2355.20;;;;;;5072547;28;20047;-71
2023/08/09 04:35:09;;;;;;;7.18;5.20;;;435.30;2355.20;;;;;;5072855;28;20029;-71
2023/08/09 04:37:35;;;;;;;9.13;4.60;;;435.30;2355.20;;;;;;5054676;28;20039;-73
2023/08/09 04:40:00;;;;;;;12.27;4.93;;;435.40;2355.20;;;;;;5072429;28;20024;-74
2023/08/09 04:42:27;;;;;;;11.50;6.18;;;435.40;2355.20;;;;;;5072643;28;20538;-71
2023/08/09 04:44:53;;;;;;;14.70;6.43;;;435.50;2355.20;;;;;;5054483;28;20025;-71
2023/08/09 04:47:18;;;;;;;12.38;5.78;;;435.70;2355.20;;;;;;5054067;28;20367;-71
2023/08/09 04:49:45;;;;;;;8.60;5.75;;;435.60;2355.20;;;;;;5072991;28;20056;-70
2023/08/09 04:52:10;;;;;;;10.13;6.32;;;435.60;2355.20;;;;;;5076531;28;20533;-73
2023/08/09 04:54:36;;;;;;;10.18;6.03;;;435.60;2355.20;;;;;;5076302;28;20064;-71
2023/08/09 04:57:03;;;;;;;10.05;6.18;;;435.60;2355.20;;;;;;5076130;28;20467;-72
2023/08/09 04:59:29;;;;;;;12.73;6.90;;;435.70;2355.20;;;;;;5073243;28;20025;-72
2023/08/09 05:01:54;;;;;;;10.15;6.10;;;435.70;2355.20;;;;;;5072971;28;20050;-74
2023/08/09 05:04:20;;;;;;;11.10;6.57;;;435.90;2355.20;;;;;;5075451;28;20027;-72
2023/08/09 05:06:46;;;;;;;10.30;7.38;;;435.90;2355.20;;;;;;5075172;28;20445;-73
2023/08/09 05:09:11;;;;;;;13.65;6.90;;;436.00;2355.20;;;;;;5075145;28;20099;-72
2023/08/09 05:11:37;;;;;;;9.65;7.13;;;436.10;2355.20;;;;;;5075630;28;20458;-71
2023/08/09 05:14:03;;;;;;;12.57;6.30;;;436.10;2355.20;;;;;;5075243;28;20025;-72
2023/08/09 05:16:28;;;;;;;13.93;7.38;;;460.90;2380.80;;;;;;5074200;28;20467;-72
2023/08/09 05:18:54;;;;;;;14.02;7.53;;;461.10;2380.80;;;;;;5074515;28;20031;-70
2023/08/09 05:21:20;;;;;;;12.88;7.97;;;461.20;2380.80;;;;;;5074769;28;20079;-70
2023/08/09 05:23:45;;;;;;;11.13;8.07;;;461.20;2380.80;;;;;;5075027;28;20153;-70
2023/08/09 05:26:11;;;;;;;13.43;8.13;;;461.40;2380.80;;;;;;5075056;28;20028;-71
2023/08/09 05:28:37;;;;;;;11.25;7.70;;;461.40;2380.80;;;;;;5069350;28;20051;-71
2023/08/09 05:31:02;;;;;;;12.10;7.88;;;461.50;2380.80;;;;;;5074869;28;20020;-73
2023/08/09 05:33:28;;;;;;;12.48;7.35;;;461.50;2380.80;;;;;;5074960;28;20035;-74
2023/08/09 05:35:55;;;;;;;10.45;7.13;;;461.60;2380.80;;;;;;5074683;28;20174;-71
2023/08/09 05:38:21;;;;;;;14.63;9.02;;;461.70;2380.80;;;;;;5073409;28;20470;-71
2023/08/09 05:40:46;;;;;;;11.80;8.30;;;486.50;2380.80;;;;;;5073215;28;20109;-73
2023/08/09 05:43:12;;;;;;;10.00;7.78;;;486.40;2380.80;;;;;;5074589;28;20402;-70
2023/08/09 05:45:38;;;;;;;13.55;8.10;;;486.50;2380.80;;;;;;5074696;28;20029;-70
2023/08/09 05:48:04;;;;;;;13.52;8.68;;;486.50;2380.80;;;;;;5074119;28;20028;-73
2023/08/09 05:50:30;;;;;;;12.38;8.77;;;486.70;2380.80;;;;;;5073093;28;20040;-75
2023/08/09 05:52:55;;;;;;;11.30;7.53;;;486.70;2380.80;;;;;;5073710;28;20032;-73
2023/08/09 05:55:21;;;;;;;12.73;8.80;;;486.70;2380.80;;;;;;5074305;28;20032;-72
2023/08/09 05:57:47;;;;;;;12.32;8.27;;;486.70;2380.80;;;;;;5073734;28;20103;-73
2023/08/09 06:00:15;;;;;;;21.08;9.52;;;486.70;2380.80;;;;;;5074239;28;20134;-71
2023/08/09 06:02:43;;;;;;;12.98;8.38;;;486.80;2380.80;;;;;;5073488;28;20115;-73
2023/08/09 06:05:14;;;;;;;12.88;8.52;;;487.00;2380.80;;;;;;5074688;28;20020;-78
2023/08/09 06:07:40;;;;;;;11.13;7.45;;;487.00;2380.80;;;;;;5073981;28;20024;-72
2023/08/09 06:10:06;;;;;;;13.68;8.07;;;487.20;2380.80;;;;;;5074163;28;20075;-74
2023/08/09 06:12:31;;;;;;;10.77;7.93;;;487.30;2380.80;;;;;;5073828;28;20490;-72
2023/08/09 06:14:57;;;;;;;9.75;7.45;;;487.30;2380.80;;;;;;5074237;28;20017;-72
2023/08/09 06:17:23;;;;;;;13.30;8.20;;;512.00;2380.80;;;;;;5073271;28;20037;-77
2023/08/09 06:19:48;;;;;;;11.73;7.13;;;512.20;2380.80;;;;;;5074317;28;20028;-75
2023/08/09 06:22:14;;;;;;;11.63;6.88;;;512.30;2380.80;;;;;;5073993;28;20032;-71
2023/08/09 06:24:40;;;;;;;9.80;6.95;;;512.20;2380.80;;;;;;5074551;28;20069;-71
2023/08/09 06:27:05;;;;;;;11.85;6.80;;;512.50;2380.80;;;;;;5073793;28;20060;-72
2023/08/09 06:29:33;;;;;;;11.85;6.55;;;512.70;2380.80;;;;;;5072716;28;20016;-74
2023/08/09 06:31:58;;;;;;;9.02;5.95;;;512.90;2380.80;;;;;;5069859;28;20070;-71
2023/08/09 06:34:24;;;;;;;12.02;6.38;;;512.90;2380.80;;;;;;5073737;28;20028;-74
2023/08/09 06:36:50;;;;;;;8.82;5.57;;;;;;;;;;5073674;28;20386;-72
2023/08/09 06:39:16;;;;;;;8.65;6.07;;;538.00;2406.40;;;;;;5073861;28;20024;-71
2023/08/09 06:41:41;;;;;;;11.63;5.18;;;538.20;2406.40;;;;;;5073389;28;20565;-72
2023/08/09 06:44:07;;;;;;;9.75;6.40;;;538.40;2406.40;;;;;;5069137;28;20029;-71
2023/08/09 06:46:33;;;;;;;8.80;5.68;;;538.50;2406.40;;;;;;5073412;28;20090;-71
2023/08/09 06:48:59;;;;;;;8.32;4.53;;;563.20;2432.00;;;;;;5064899;28;20048;-73
2023/08/09 06:51:24;;;;;;;8.30;4.90;;;563.50;2432.00;;;;;;5073124;28;20142;-75
2023/08/09 06:53:50;;;;;;;9.60;4.35;;;563.90;2432.00;;;;;;5073562;28;20521;-73
2023/08/09 06:56:16;;;;;;;7.03;3.95;;;564.10;2432.00;;;;;;5073165;28;20033;-71
2023/08/09 06:58:42;;;;;;;6.10;3.55;;;588.80;2432.00;;;;;;5073401;28;20020;-72
2023/08/09 07:01:09;;;;;;;11.75;3.60;;;589.00;2432.00;;;;;;5073042;28;20035;-72
2023/08/09 07:03:35;;;;;;;13.52;3.45;;;589.20;2406.40;;;;;;5071528;28;20438;-73
2023/08/09 07:06:02;;;;;;;6.32;4.03;;;589.30;2406.40;;;;;;5073362;28;20023;-72
2023/08/09 07:08:27;;;;;;;6.93;2.78;;;589.30;2432.00;;;;;;5054503;28;20395;-71
2023/08/09 07:10:53;;;;;;;5.88;2.95;;;589.60;2329.60;;;;;;5071297;28;20109;-73
2023/08/09 07:13:19;;;;;;;4.90;2.90;;;589.70;2380.80;;;;;;5072806;28;20024;-73
2023/08/09 07:15:45;;;;;;;7.13;3.63;;;614.40;2227.20;;;;;;5072893;28;20090;-73
2023/08/09 07:18:11;;;;;;;4.50;3.22;;;614.60;2176.00;;;;;;5072279;28;20024;-74
2023/08/09 07:20:37;;;;;;;6.72;3.42;;;614.60;2176.00;;;;;;5072219;28;20087;-73
2023/08/09 07:23:02;;;;;;;5.85;3.45;;;614.80;2278.40;;;;;;5067697;28;20033;-73
2023/08/09 07:25:28;;;;;;;4.55;3.10;;;615.00;2150.40;;;;;;5070535;28;20023;-74
2023/08/09 07:27:54;;;;;;;6.20;3.83;;;615.10;2176.00;;;;;;5071960;28;20052;-73
2023/08/09 07:30:19;;;;;;;7.15;3.20;;;615.20;2201.60;;;;;;5072633;28;20032;-75
2023/08/09 07:32:46;;;;;;;7.25;3.47;;;640.00;2124.80;;;;;;5054662;28;20036;-73
2023/08/09 07:35:12;;;;;;;6.50;3.13;;;640.20;2073.60;;;;;;5072704;28;20028;-73
2023/08/09 07:37:40;;;;;;;5.47;3.25;;;640.20;1945.60;;;;;;5072705;28;20359;-74
2023/08/09 07:40:07;;;;;;;5.97;3.15;;;640.30;1996.80;;;;;;5072604;28;20040;-73
2023/08/09 07:42:35;;;;;;;9.50;3.35;;;640.50;1971.20;;;;;;5061046;28;20036;-73
2023/08/09 07:45:01;;;;;;;8.10;3.17;;;640.70;1945.60;;;;;;5069326;28;20032;-74
2023/08/09 07:47:27;;;;;;;6.65;2.90;;;640.70;1920.00;;;;;;5069653;28;20032;-73
2023/08/09 07:49:52;;;;;;;7.93;2.78;;;640.80;1894.40;;;;;;5072134;28;20098;-73
2023/08/09 07:52:20;;;;;;;5.95;3.13;;;640.90;1894.40;;;;;;5069927;28;20044;-73
2023/08/09 07:54:46;;;;;;;15.65;3.75;;;665.70;1971.20;;;;;;5071947;28;20068;-73
2023/08/09 07:57:12;;;;;;;7.55;2.75;;;665.90;1971.20;;;;;;5072756;28;20047;-74
2023/08/09 07:59:38;;;;;;;5.20;2.97;;;666.30;1894.40;;;;;;5072552;28;20071;-73
2023/08/09 08:02:04;;;;;;;5.53;2.67;;;666.50;1843.20;;;;;;5071850;28;20438;-73
2023/08/09 08:04:30;;;;;;;5.40;3.17;;;691.20;1792.00;;;;;;5072448;28;20499;-73
2023/08/09 08:06:56;;;;;;;4.53;2.85;;;691.40;1766.40;;;;;;5072370;28;20035;-73
2023/08/09 08:09:23;;;;;;;5.70;3.00;;;691.20;1715.20;;;;;;5069094;28;20448;-73
2023/08/09 08:11:49;;;;;;;6.47;2.47;;;691.40;1689.60;;;;;;5059600;28;20017;-73
2023/08/09 08:14:15;;;;;;;5.40;3.28;;;691.20;1689.60;;;;;;5072066;28;20454;-74
2023/08/09 08:16:41;;;;;;;3.80;2.40;;;691.40;1740.80;;;;;;5072148;28;20033;-73
2023/08/09 08:19:08;;;;;;;4.18;2.20;;;691.70;1664.00;;;;;;5053947;28;20036;-73
2023/08/09 08:21:34;;;;;;;5.97;2.50;;;691.70;1612.80;;;;;;5071986;28;20037;-73
2023/08/09 08:24:04;;;;;;;3.83;2.05;;;691.70;1612.80;;;;;;5070643;28;20021;-73
2023/08/09 08:26:33;;;;;;;5.03;2.38;;;691.60;1536.00;;;;;;5076287;28;20047;-73
2023/08/09 08:28:59;;;;;;;4.65;2.25;;;691.50;1587.20;;;;;;5076070;28;20032;-73
2023/08/09 08:31:26;;;;;;;4.10;2.28;;;691.70;1561.60;;;;;;5075837;28;20082;-73
2023/08/09 08:33:54;;;;;;;4.47;2.97;;;716.80;1664.00;;;;;;5075731;28;20032;-73
2023/08/09 08:36:20;;;;;;;5.22;2.28;;;716.80;1587.20;;;;;;5075961;28;20027;-73
2023/08/09 08:38:46;;;;;;;4.22;2.10;;;691.90;1561.60;;;;;;5071635;28;20078;-73
2023/08/09 08:41:12;;;;;;;4.70;2.15;;;717.10;1587.20;;;;;;5075965;28;20044;-73
2023/08/09 08:43:38;;;;;;;3.65;2.38;;;717.50;1459.20;;;;;;5075967;28;20462;-73
2023/08/09 08:46:04;;;;;;;7.93;2.42;;;717.10;1587.20;;;;;;5075453;28;20367;-73
2023/08/09 08:48:34;;;;;;;4.82;2.67;;;717.40;1510.40;;;;;;5074900;28;20036;-73
2023/08/09 08:51:05;;;;;;;9.43;3.38;;;717.50;1484.80;;;;;;5075113;28;20510;-73
2023/08/09 08:53:32;;;;;;;5.07;2.17;;;717.60;1510.40;;;;;;5073121;28;20469;-73
2023/08/09 08:55:58;;;;;;;3.47;1.90;;;742.50;1510.40;;;;;;5075606;28;20062;-73
2023/08/09 08:58:24;;;;;;;5.30;2.33;;;717.40;1408.00;;;;;;5075047;28;20062;-74
2023/08/09 09:00:49;;;;;;;5.93;2.20;;;716.90;1510.40;;;;;;5075536;28;20036;-74
2023/08/09 09:03:15;;;;;;;3.10;1.85;;;716.80;1561.60;;;;;;5075337;28;20040;-72
2023/08/09 09:05:41;;;;;;;4.63;2.35;;;716.90;1536.00;;;;;;5075546;28;20525;-73
2023/08/09 09:08:06;;;;;;;5.28;2.17;;;717.20;1536.00;;;;;;5066137;28;20131;-73
2023/08/09 09:10:32;;;;;;;7.93;2.90;;;717.10;1536.00;;;;;;5075862;28;20029;-75
2023/08/09 09:12:58;;;;;;;3.30;1.83;;;717.40;1536.00;;;;;;5075486;28;20029;-72
2023/08/09 09:15:26;;;;;;;2.70;1.88;;;742.40;1536.00;;;;;;5071028;28;20024;-73
2023/08/09 09:17:52;;;;;;;5.03;1.98;;;742.80;1433.60;;;;;;5075645;28;20086;-73
2023/08/09 09:20:24;;;;;;;3.50;1.88;;;742.60;1433.60;;;;;;5074965;28;20029;-74
2023/08/09 09:22:51;;;;;;;3.60;1.92;;;742.80;1305.60;;;;;;5075163;28;20029;-74
2023/08/09 09:25:17;;;;;;;5.45;2.28;;;742.90;1331.20;;;;;;5075248;28;20020;-74
2023/08/09 09:27:52;;;;;;;4.55;2.05;;;742.80;1356.80;;;;;;5075330;28;20064;-74
2023/08/09 09:30:21;;;;;;;4.22;2.15;;;743.00;1356.80;;;;;;5071426;28;20029;-74
2023/08/09 09:33:03;;;;;;;5.43;2.00;;;742.90;1408.00;;;;;;5074959;28;20095;-74
2023/08/09 09:35:31;;;;;;;6.90;2.45;;;743.30;1382.40;;;;;;5074510;28;20012;-74
2023/08/09 09:37:58;;;;;;;4.72;2.17;;;743.30;1382.40;;;;;;5072146;28;20531;-74
2023/08/09 09:40:42;;;;;;;2.60;1.90;;;743.10;1382.40;;;;;;5066798;28;20478;-74
2023/08/09 09:43:10;;;;;;;3.05;2.00;;;743.10;1382.40;;;;;;5074845;28;20021;-74
2023/08/09 09:45:41;;;;;;;3.08;1.88;;;768.10;1305.60;;;;;;5074787;28;20051;-74
2023/08/09 09:48:18;;;;;;;3.70;2.05;;;768.10;1356.80;;;;;;5074446;28;20090;-75
2023/08/09 09:50:44;;;;;;;2.38;1.65;;;743.30;1280.00;;;;;;5067367;28;20057;-74
2023/08/09 09:53:14;;;;;;;4.78;2.20;;;743.10;1280.00;;;;;;5070023;28;20539;-74
2023/08/09 09:55:40;;;;;;;3.40;1.70;;;743.10;1254.40;;;;;;5074809;28;20025;-74
2023/08/09 09:58:07;;;;;;;6.05;2.20;;;743.20;1280.00;;;;;;5074274;28;20482;-74
2023/08/09 10:00:33;;;;;;;4.00;2.00;;;768.00;1280.00;;;;;;5070804;28;20088;-74
2023/08/09 10:03:05;;;;;;;7.40;1.80;;;743.30;1254.40;;;;;;5072573;28;20041;-74
2023/08/09 10:05:37;;;;;;;2.58;1.75;;;768.30;1228.80;;;;;;5069975;28;20016;-74
2023/08/09 10:08:08;;;;;;;4.57;2.22;;;768.60;1228.80;;;;;;5070564;28;20535;-74
2023/08/09 10:10:36;;;;;;;6.25;1.75;;;768.80;1203.20;;;;;;5073452;28;20029;-74
2023/08/09 10:13:05;;;;;;;2.63;1.60;;;768.70;1126.40;;;;;;5074444;28;20028;-74
2023/08/09 10:15:46;;;;;;;4.30;2.00;;;768.80;1177.60;;;;;;5074309;28;20025;-75
2023/08/09 10:18:35;;;;;;;3.30;1.75;;;768.70;1203.20;;;;;;5073742;28;20112;-74
2023/08/09 10:21:02;;;;;;;3.72;1.95;;;768.30;1203.20;;;;;;5072905;28;20093;-74
2023/08/09 10:23:29;;;;;;;3.70;2.10;;;743.10;1203.20;;;;;;5074179;28;20017;-74
2023/08/09 10:25:56;;;;;;;4.03;1.90;;;768.60;1228.80;;;;;;5073070;28;20378;-74
2023/08/09 10:28:47;;;;;;;6.50;2.00;;;768.80;1177.60;;;;;;5073797;28;20500;-75
2023/08/09 10:31:13;;;;;;;6.82;1.92;;;743.30;1228.80;;;;;;5065142;28;20041;-74
2023/08/09 10:34:01;;;;;;;4.38;1.88;;;768.10;1203.20;;;;;;5073809;28;20100;-75
2023/08/09 10:36:34;;;;;;;2.97;1.85;;;768.60;1203.20;;;;;;5071683;28;20052;-74
2023/08/09 10:39:12;;;;;;;3.95;1.88;;;768.40;1228.80;;;;;;5066013;28;20520;-74
2023/08/09 10:41:38;;;;;;;2.70;1.60;;;768.40;1177.60;;;;;;5067090;28;20123;-74
2023/08/09 10:44:04;;;;;;;2.20;1.50;;;768.50;1203.20;;;;;;5073675;28;20024;-74
2023/08/09 10:46:34;;;;;;;3.13;1.77;;;768.30;1177.60;;;;;;5073776;28;20039;-74
2023/08/09 10:49:00;;;;;;;3.03;1.40;;;742.90;1228.80;;;;;;5068007;28;20075;-74
2023/08/09 10:51:26;;;;;;;3.17;1.80;;;742.60;1254.40;;;;;;5073004;28;20036;-74
2023/08/09 10:54:05;;;;;;;3.10;1.70;;;742.40;1280.00;;;;;;5073423;28;20485;-74
2023/08/09 10:56:47;;;;;;;3.15;1.75;;;742.40;1280.00;;;;;;5070011;28;20028;-74
2023/08/09 10:59:24;;;;;;;2.60;1.48;;;742.50;1254.40;;;;;;5069057;28;20086;-74
2023/08/09 11:01:50;;;;;;;3.05;1.40;;;742.50;1203.20;;;;;;5073129;28;20477;-74
2023/08/09 11:04:17;;;;;;;2.38;1.70;;;742.50;1203.20;;;;;;5071680;28;20039;-75
2023/08/09 11:06:50;;;;;;;4.32;2.00;;;742.60;1228.80;;;;;;5073227;28;20024;-74
2023/08/09 11:09:18;;;;;;;2.65;1.50;;;742.60;1254.40;;;;;;5072739;28;20020;-73
2023/08/09 11:11:48;;;;;;;4.15;1.52;;;743.00;1280.00;;;;;;5040222;28;20029;-74
2023/08/09 11:14:16;;;;;;;2.28;1.50;;;768.00;1203.20;;;;;;5073661;28;20457;-74
2023/08/09 11:16:43;;;;;;;5.28;1.63;;;768.80;1126.40;;;;;;5072302;28;20041;-74
2023/08/09 11:19:14;;;;;;;2.75;1.60;;;793.60;1152.00;;;;;;5067601;28;20020;-74
2023/08/09 11:21:42;;;;;;;1.73;1.30;;;793.70;1126.40;;;;;;5070460;28;20041;-73
2023/08/09 11:24:09;;;;;;;4.40;1.73;;;794.10;1126.40;;;;;;5067006;28;20043;-73
2023/08/09 11:26:36;;;;;;;2.65;1.92;;;793.90;1152.00;;;;;;5055121;28;20489;-74
2023/08/09 11:29:06;;;;;;;8.23;1.90;;;768.90;1177.60;;;;;;5072694;28;20025;-72
2023/08/09 11:31:33;;;;;;;3.60;1.90;;;768.90;1152.00;;;;;;5072742;28;20032;-72
2023/08/09 11:34:00;;;;;;;3.15;1.60;;;768.60;1228.80;;;;;;5072350;28;20021;-73
2023/08/09 11:36:30;;;;;;;2.50;1.50;;;793.70;1203.20;;;;;;5072631;28;20028;-74
2023/08/09 11:38:57;;;;;;;6.18;1.95;;;768.90;1100.80;;;;;;5065040;28;20047;-74
2023/08/09 11:41:25;;;;;;;5.20;1.58;;;793.70;1152.00;;;;;;5072477;28;20048;-74
2023/08/09 11:43:52;;;;;;;3.35;1.92;;;768.90;1126.40;;;;;;5072340;28;20023;-73
2023/08/09 11:46:22;;;;;;;2.22;1.60;;;768.60;1177.60;;;;;;5072822;28;20501;-74
2023/08/09 11:48:52;;;;;;;3.33;1.63;;;768.20;1177.60;;;;;;5071850;28;20127;-75
2023/08/09 11:51:21;;;;;;;2.67;1.38;;;743.30;1228.80;;;;;;5072558;28;20029;-75
2023/08/09 11:53:49;;;;;;;2.38;1.55;;;768.00;1203.20;;;;;;5064149;28;20036;-74
2023/08/09 11:56:18;;;;;;;2.13;1.33;;;743.30;1203.20;;;;;;5071233;28;20047;-73
2023/08/09 11:58:50;;;;;;;4.03;1.48;;;742.90;1254.40;;;;;;5072285;28;20020;-74
2023/08/09 12:01:24;;;;;;;3.17;1.52;;;743.00;1228.80;;;;;;5070391;28;20047;-73
2023/08/09 12:03:52;;;;;;;1.92;1.42;;;742.90;1254.40;;;;;;5066530;28;20028;-73
2023/08/09 12:06:38;;;;;;;2.92;1.67;;;742.50;1280.00;;;;;;5071903;28;20393;-73
2023/08/09 12:09:34;;;;;;;2.47;1.58;;;742.70;1228.80;;;;;;5069297;28;20077;-73
2023/08/09 12:12:09;;;;;;;3.17;1.60;;;742.80;1203.20;;;;;;5072208;28;20039;-73
2023/08/09 12:14:38;;;;;;;2.70;1.63;;;742.50;1203.20;;;;;;5072566;28;20119;-73
2023/08/09 12:17:05;;;;;;;2.85;1.50;;;742.50;1228.80;;;;;;5072230;28;20024;-74